createdAt,value
2017-04-25T04:00:38.152Z,98.07
2017-04-25T04:01:03.649Z,98.07
2017-04-25T04:01:28.499Z,98.25
2017-04-25T04:01:53.959Z,98.16
2017-04-25T04:02:19.441Z,98.25
2017-04-25T04:03:24.358Z,98.16
2017-04-25T04:03:49.854Z,98.16
2017-04-25T04:04:16.714Z,98.25
2017-04-25T04:04:40.736Z,98.07
2017-04-25T04:05:06.171Z,98.25
2017-04-25T04:05:32.239Z,97.97
2017-04-25T04:05:59.048Z,98.07
2017-04-25T04:06:24.540Z,98.07
2017-04-25T04:06:50.607Z,98.07
2017-04-25T04:07:18.996Z,98.07
2017-04-25T04:07:45.415Z,98.07
2017-04-25T04:08:12.033Z,97.88
2017-04-25T04:08:39.215Z,98.07
2017-04-25T04:09:03.644Z,98.16
2017-04-25T04:09:29.091Z,97.97
2017-04-25T04:09:56.088Z,98.07
2017-04-25T04:10:21.595Z,97.88
2017-04-25T04:10:47.900Z,98.35
2017-04-25T04:11:13.359Z,98.07
2017-04-25T04:11:38.857Z,98.07
2017-04-25T04:12:05.006Z,98.44
2017-04-25T04:12:30.435Z,98.07
2017-04-25T04:12:55.911Z,98.16
2017-04-25T04:13:22.102Z,98.07
2017-04-25T04:13:49.215Z,98.16
2017-04-25T04:14:13.518Z,98.25
2017-04-25T04:14:40.212Z,98.35
2017-04-25T04:15:05.217Z,98.07
2017-04-25T04:15:31.142Z,97.97
2017-04-25T04:15:56.612Z,97.69
2017-04-25T04:16:22.035Z,97.88
2017-04-25T04:16:50.214Z,97.97
2017-04-25T04:17:15.724Z,97.97
2017-04-25T04:17:41.093Z,98.16
2017-04-25T04:18:07.231Z,98.07
2017-04-25T04:18:32.894Z,98.07
2017-04-25T04:18:58.366Z,98.35
2017-04-25T04:19:23.787Z,98.16
2017-04-25T04:19:50.898Z,98.16
2017-04-25T04:20:17.215Z,98.25
2017-04-25T04:20:41.873Z,98.07
2017-04-25T04:21:09.075Z,98.07
2017-04-25T04:21:35.169Z,98.16
2017-04-25T04:22:01.401Z,98.07
2017-04-25T04:22:26.840Z,97.97
2017-04-25T04:22:52.280Z,98.07
2017-04-25T04:23:17.786Z,98.07
2017-04-25T04:23:43.218Z,98.25
2017-04-25T04:24:08.689Z,98.07
2017-04-25T04:24:34.167Z,98.07
2017-04-25T04:24:59.653Z,97.59
2017-04-25T04:25:27.383Z,98.16
2017-04-25T04:25:52.848Z,97.88
2017-04-25T04:26:20.754Z,98.07
2017-04-25T04:26:46.228Z,97.97
2017-04-25T04:27:10.807Z,98.16
2017-04-25T04:27:37.219Z,98.25
2017-04-25T04:28:01.718Z,98.25
2017-04-25T04:28:27.857Z,98.25
2017-04-25T04:28:53.895Z,98.25
2017-04-25T04:29:19.436Z,98.07
2017-04-25T04:29:46.078Z,98.25
2017-04-25T04:30:11.546Z,98.07
2017-04-25T04:30:36.978Z,98.07
2017-04-25T04:31:02.428Z,98.25
2017-04-25T04:31:27.952Z,98.35
2017-04-25T04:32:27.787Z,98.35
2017-04-25T04:32:54.275Z,98.25
2017-04-25T04:33:18.331Z,97.88
2017-04-25T04:33:47.279Z,97.88
2017-04-25T04:34:12.773Z,97.97
2017-04-25T04:34:40.466Z,98.07
2017-04-25T04:35:05.920Z,98.07
2017-04-25T04:35:32.797Z,97.97
2017-04-25T04:35:58.124Z,97.97
2017-04-25T04:36:23.576Z,98.07
2017-04-25T04:36:50.395Z,98.07
2017-04-25T04:37:15.819Z,97.78
2017-04-25T04:37:42.420Z,97.78
2017-04-25T04:38:07.910Z,97.59
2017-04-25T04:38:34.277Z,97.59
2017-04-25T04:38:58.835Z,97.78
2017-04-25T04:39:25.123Z,97.59
2017-04-25T04:39:50.599Z,97.78
2017-04-25T04:40:16.028Z,97.78
2017-04-25T04:40:43.296Z,98.44
2017-04-25T04:41:07.877Z,97.59
2017-04-25T04:41:33.366Z,97.5
2017-04-25T04:41:58.896Z,97.78
2017-04-25T04:42:25.776Z,97.69
2017-04-25T04:42:50.045Z,97.5
2017-04-25T04:43:16.914Z,97.59
2017-04-25T04:43:43.065Z,97.31
2017-04-25T04:44:12.114Z,97.31
2017-04-25T04:44:38.278Z,97.4
2017-04-25T04:45:03.673Z,97.59
2017-04-25T04:45:29.801Z,97.21
2017-04-25T04:45:55.227Z,97.4
2017-04-25T04:46:21.776Z,97.31
2017-04-25T04:46:47.280Z,97.31
2017-04-25T04:47:12.105Z,97.31
2017-04-25T04:47:40.152Z,97.4
2017-04-25T04:48:06.446Z,97.5
2017-04-25T04:48:31.895Z,97.4
2017-04-25T04:48:58.777Z,97.5
2017-04-25T04:49:24.649Z,97.78
2017-04-25T04:49:50.138Z,97.4
2017-04-25T04:50:15.566Z,97.4
2017-04-25T04:50:41.930Z,97.31
2017-04-25T04:51:07.401Z,97.31
2017-04-25T04:51:33.948Z,97.21
2017-04-25T04:52:00.780Z,97.21
2017-04-25T04:52:25.702Z,97.21
2017-04-25T04:52:51.144Z,97.31
2017-04-25T04:53:16.607Z,97.12
2017-04-25T04:53:42.065Z,97.21
2017-04-25T04:54:09.304Z,97.5
2017-04-25T04:54:34.795Z,97.12
2017-04-25T04:55:00.251Z,97.31
2017-04-25T04:55:26.277Z,97.78
2017-04-25T04:55:52.797Z,97.31
2017-04-25T04:56:17.352Z,97.59
2017-04-25T04:56:42.839Z,97.69
2017-04-25T04:57:08.303Z,97.31
2017-04-25T04:57:42.340Z,97.4
2017-04-25T04:58:07.774Z,96.92
2017-04-25T04:58:34.008Z,97.31
2017-04-25T04:58:59.485Z,96.83
2017-04-25T04:59:26.274Z,97.02
2017-04-25T04:59:51.778Z,97.36
2017-04-25T05:00:18.469Z,97.02
2017-04-25T05:00:43.929Z,97.5
2017-04-25T05:01:10.291Z,97.26
2017-04-25T05:01:34.811Z,97.12
2017-04-25T05:02:01.090Z,96.64
2017-04-25T05:02:27.329Z,96.31
2017-04-25T05:02:53.292Z,96.17
2017-04-25T05:03:18.735Z,96.17
2017-04-25T05:03:45.781Z,96.17
2017-04-25T05:04:11.280Z,96.31
2017-04-25T05:04:35.918Z,95.88
2017-04-25T05:05:02.349Z,96.12
2017-04-25T05:05:27.816Z,96.41
2017-04-25T05:05:53.296Z,96.5
2017-04-25T05:06:21.292Z,96.41
2017-04-25T05:06:45.784Z,96.31
2017-04-25T05:07:11.522Z,96.64
2017-04-25T05:07:37.011Z,97.07
2017-04-25T05:08:04.045Z,97.26
2017-04-25T05:08:30.117Z,97.64
2017-04-25T05:08:55.629Z,97.55
2017-04-25T05:09:21.198Z,96.88
2017-04-25T05:09:47.258Z,96.88
2017-04-25T05:10:12.709Z,96.31
2017-04-25T05:10:38.776Z,96.5
2017-04-25T05:11:06.279Z,96.59
2017-04-25T05:11:30.861Z,96.59
2017-04-25T05:11:57.012Z,96.03
2017-04-25T05:12:22.494Z,96.59
2017-04-25T05:12:54.550Z,96.78
2017-04-25T05:13:21.294Z,96.41
2017-04-25T05:13:46.406Z,95.65
2017-04-25T05:14:11.893Z,96.03
2017-04-25T05:14:37.369Z,95.84
2017-04-25T05:15:04.277Z,96.31
2017-04-25T05:15:29.040Z,96.12
2017-04-25T05:15:54.464Z,96.22
2017-04-25T05:16:21.777Z,96.31
2017-04-25T05:16:46.164Z,96.22
2017-04-25T05:17:11.601Z,95.93
2017-04-25T05:17:38.031Z,96.5
2017-04-25T05:18:03.509Z,96.41
2017-04-25T05:18:28.946Z,96.78
2017-04-25T05:18:54.432Z,96.69
2017-04-25T05:19:19.905Z,96.41
2017-04-25T05:19:46.916Z,96.22
2017-04-25T05:20:12.400Z,96.41
2017-04-25T05:20:39.557Z,96.69
2017-04-25T05:21:05.052Z,96.78
2017-04-25T05:21:30.472Z,96.69
2017-04-25T05:21:55.948Z,96.5
2017-04-25T05:22:22.796Z,96.22
2017-04-25T05:22:47.588Z,96.22
2017-04-25T05:23:13.577Z,96.22
2017-04-25T05:23:39.960Z,95.65
2017-04-25T05:24:06.414Z,95.84
2017-04-25T05:24:32.639Z,95.65
2017-04-25T05:24:58.124Z,95.36
2017-04-25T05:25:23.617Z,95.55
2017-04-25T05:25:49.061Z,95.84
2017-04-25T05:26:14.511Z,95.65
2017-04-25T05:26:39.983Z,95.74
2017-04-25T05:27:05.473Z,95.74
2017-04-25T05:27:30.955Z,95.74
2017-04-25T05:27:56.411Z,95.46
2017-04-25T05:28:21.856Z,95.55
2017-04-25T05:28:47.347Z,95.84
2017-04-25T05:29:12.788Z,95.65
2017-04-25T05:29:38.251Z,95.46
2017-04-25T05:30:03.756Z,94.98
2017-04-25T05:30:29.175Z,95.36
2017-04-25T05:30:54.635Z,95.07
2017-04-25T05:31:20.092Z,95.55
2017-04-25T05:31:45.542Z,95.93
2017-04-25T05:32:11.024Z,95.55
2017-04-25T05:32:36.494Z,95.65
2017-04-25T05:33:01.989Z,95.74
2017-04-25T05:33:27.510Z,93.94
2017-04-25T05:33:52.965Z,92.8
2017-04-25T05:34:18.453Z,91.75
2017-04-25T05:34:43.904Z,92.23
2017-04-25T05:35:09.390Z,92.14
2017-04-25T05:35:34.876Z,92.42
2017-04-25T05:36:00.348Z,92.52
2017-04-25T05:36:25.825Z,92.52
2017-04-25T05:36:51.303Z,92.23
2017-04-25T05:37:16.755Z,91.66
2017-04-25T05:37:42.243Z,91.38
2017-04-25T05:38:07.709Z,91.56
2017-04-25T05:38:33.169Z,91.75
2017-04-25T05:38:58.637Z,91.47
2017-04-25T05:39:24.152Z,91.33
2017-04-25T05:39:49.614Z,92.14
2017-04-25T05:40:15.142Z,92.47
2017-04-25T05:40:40.614Z,92.42
2017-04-25T05:41:06.097Z,92.66
2017-04-25T05:41:31.538Z,92.94
2017-04-25T05:41:57.028Z,93.61
2017-04-25T05:42:22.458Z,94.23
2017-04-25T05:42:47.955Z,93.8
2017-04-25T05:43:13.394Z,93.7
2017-04-25T05:43:38.879Z,93.65
2017-04-25T05:44:04.344Z,93.89
2017-04-25T05:44:29.816Z,93.84
2017-04-25T05:44:55.278Z,93.94
2017-04-25T05:45:20.777Z,94.18
2017-04-25T05:45:46.235Z,93.13
2017-04-25T05:46:11.660Z,92.85
2017-04-25T05:46:37.130Z,92.94
2017-04-25T05:47:02.589Z,93.32
2017-04-25T05:47:28.080Z,92.94
2017-04-25T05:47:53.524Z,92.66
2017-04-25T05:48:19.023Z,92.28
2017-04-25T05:48:44.501Z,92.57
2017-04-25T05:49:09.955Z,92.38
2017-04-25T05:49:35.438Z,92.38
2017-04-25T05:50:00.888Z,92.66
2017-04-25T05:50:26.377Z,92.47
2017-04-25T05:50:51.841Z,92.76
2017-04-25T05:51:17.320Z,92.94
2017-04-25T05:51:42.779Z,92.57
2017-04-25T05:52:08.258Z,92.66
2017-04-25T05:52:33.754Z,93.23
2017-04-25T05:52:59.228Z,92.57
2017-04-25T05:53:24.704Z,91.61
2017-04-25T05:53:50.184Z,91.8
2017-04-25T05:54:15.631Z,92.38
2017-04-25T05:54:41.126Z,91.14
2017-04-25T05:55:06.606Z,90.86
2017-04-25T05:55:32.097Z,91.05
2017-04-25T05:55:57.534Z,90.38
2017-04-25T05:56:23.007Z,91.19
2017-04-25T05:56:48.468Z,91.56
2017-04-25T05:57:13.918Z,91.38
2017-04-25T05:57:39.385Z,91.09
2017-04-25T05:58:04.866Z,91.75
2017-04-25T05:58:30.318Z,91.56
2017-04-25T05:58:55.772Z,91.85
2017-04-25T05:59:21.224Z,91.75
2017-04-25T05:59:46.683Z,91.38
2017-04-25T06:00:12.157Z,90.43
2017-04-25T06:00:37.692Z,90.52
2017-04-25T06:01:03.118Z,90.9
2017-04-25T06:01:28.638Z,91.19
2017-04-25T06:01:54.093Z,91.56
2017-04-25T06:02:19.545Z,91.56
2017-04-25T06:02:45.031Z,90.62
2017-04-25T06:03:10.514Z,89.95
2017-04-25T06:03:35.942Z,89.86
2017-04-25T06:04:01.437Z,89.76
2017-04-25T06:04:26.938Z,89.95
2017-04-25T06:04:52.429Z,89.58
2017-04-25T06:05:17.892Z,88.91
2017-04-25T06:05:43.333Z,89.39
2017-04-25T06:06:08.819Z,89.2
2017-04-25T06:06:34.293Z,88.81
2017-04-25T06:06:59.748Z,89.58
2017-04-25T06:07:25.217Z,89.95
2017-04-25T06:07:50.669Z,90.71
2017-04-25T06:08:16.198Z,90.33
2017-04-25T06:08:41.608Z,88.34
2017-04-25T06:09:07.087Z,87.2
2017-04-25T06:09:32.609Z,88.34
2017-04-25T06:09:58.070Z,88.62
2017-04-25T06:10:23.522Z,89.39
2017-04-25T06:10:48.996Z,88.81
2017-04-25T06:11:14.485Z,89
2017-04-25T06:11:39.973Z,88.81
2017-04-25T06:12:05.427Z,90.43
2017-04-25T06:12:30.901Z,90.81
2017-04-25T06:12:56.353Z,90.05
2017-04-25T06:13:21.795Z,89.48
2017-04-25T06:13:47.278Z,88.91
2017-04-25T06:14:12.754Z,89.48
2017-04-25T06:14:38.236Z,90.62
2017-04-25T06:15:03.720Z,90.62
2017-04-25T06:15:29.167Z,90.05
2017-04-25T06:15:54.647Z,89.95
2017-04-25T06:16:20.106Z,90.05
2017-04-25T06:16:45.570Z,89.86
2017-04-25T06:17:11.036Z,89.76
2017-04-25T06:17:36.507Z,89.67
2017-04-25T06:18:01.969Z,89.86
2017-04-25T06:18:27.463Z,89.95
2017-04-25T06:18:52.909Z,90.52
2017-04-25T06:19:18.363Z,90.05
2017-04-25T06:19:43.839Z,89.67
2017-04-25T06:20:09.355Z,89.76
2017-04-25T06:20:34.814Z,90.38
2017-04-25T06:21:00.281Z,89.14
2017-04-25T06:21:25.885Z,87.3
2017-04-25T06:21:51.389Z,87.2
2017-04-25T06:22:16.882Z,88.06
2017-04-25T06:22:42.549Z,89.05
2017-04-25T06:23:08.226Z,88.29
2017-04-25T06:23:33.710Z,88.39
2017-04-25T06:23:59.183Z,88.01
2017-04-25T06:24:24.783Z,87.82
2017-04-25T06:24:50.219Z,87.87
2017-04-25T06:25:15.695Z,87.87
2017-04-25T06:25:41.191Z,88.81
2017-04-25T06:26:06.674Z,88.72
2017-04-25T06:26:32.124Z,88.81
2017-04-25T06:26:57.676Z,88.53
2017-04-25T06:27:23.067Z,88.24
2017-04-25T06:27:48.552Z,87.96
2017-04-25T06:28:14.000Z,87.77
2017-04-25T06:28:39.610Z,87.49
2017-04-25T06:29:04.972Z,88.15
2017-04-25T06:29:30.451Z,88.24
2017-04-25T06:29:55.894Z,87.87
2017-04-25T06:30:21.388Z,88.34
2017-04-25T06:30:46.852Z,88.34
2017-04-25T06:31:12.306Z,87.68
2017-04-25T06:31:37.784Z,86.91
2017-04-25T06:32:03.276Z,86.25
2017-04-25T06:32:28.747Z,86.35
2017-04-25T06:32:54.220Z,86.07
2017-04-25T06:33:19.736Z,87.2
2017-04-25T06:33:45.183Z,87.2
2017-04-25T06:34:10.640Z,88.34
2017-04-25T06:34:36.110Z,88.53
2017-04-25T06:35:01.568Z,88.15
2017-04-25T06:35:27.043Z,88.53
2017-04-25T06:35:52.534Z,88.53
2017-04-25T06:36:18.000Z,88.53
2017-04-25T06:36:43.472Z,88.53
2017-04-25T06:37:08.942Z,87.96
2017-04-25T06:37:34.420Z,88.53
2017-04-25T06:37:59.869Z,88.72
2017-04-25T06:38:25.537Z,88.91
2017-04-25T06:38:50.900Z,88.81
2017-04-25T06:39:16.349Z,88.43
2017-04-25T06:39:41.833Z,87.2
2017-04-25T06:40:07.289Z,86.72
2017-04-25T06:40:32.863Z,86.63
2017-04-25T06:40:58.277Z,87.2
2017-04-25T06:41:23.757Z,87.39
2017-04-25T06:41:49.196Z,87.96
2017-04-25T06:42:14.677Z,87.39
2017-04-25T06:42:40.120Z,87.58
2017-04-25T06:43:05.581Z,87.96
2017-04-25T06:43:31.050Z,88.06
2017-04-25T06:43:56.782Z,87.3
2017-04-25T06:44:22.272Z,87.68
2017-04-25T06:44:47.746Z,87.68
2017-04-25T06:45:13.200Z,87.2
2017-04-25T06:45:38.772Z,87.2
2017-04-25T06:46:04.216Z,86.82
2017-04-25T06:46:29.695Z,86.63
2017-04-25T06:46:55.181Z,87.49
2017-04-25T06:47:20.648Z,87.49
2017-04-25T06:47:46.105Z,87.01
2017-04-25T06:48:11.601Z,85.21
2017-04-25T06:48:37.057Z,85.21
2017-04-25T06:49:02.543Z,84.26
2017-04-25T06:49:28.034Z,84.07
2017-04-25T06:49:53.457Z,84.17
2017-04-25T06:50:18.937Z,84.07
2017-04-25T06:50:44.421Z,84.74
2017-04-25T06:51:09.876Z,85.68
2017-04-25T06:51:35.346Z,85.49
2017-04-25T06:52:00.821Z,84.83
2017-04-25T06:52:26.288Z,85.11
2017-04-25T06:52:51.721Z,84.64
2017-04-25T06:53:17.191Z,84.64
2017-04-25T06:53:42.655Z,83.97
2017-04-25T06:54:08.127Z,83.12
2017-04-25T06:54:33.611Z,82.84
2017-04-25T06:54:59.083Z,83.22
2017-04-25T06:55:24.533Z,83.22
2017-04-25T06:55:50.019Z,84.26
2017-04-25T06:56:15.497Z,83.97
2017-04-25T06:56:40.944Z,83.4
2017-04-25T06:57:06.386Z,83.4
2017-04-25T06:57:31.868Z,82.84
2017-04-25T06:57:57.375Z,82.65
2017-04-25T06:58:22.802Z,82.84
2017-04-25T06:58:48.273Z,83.03
2017-04-25T06:59:13.761Z,83.88
2017-04-25T06:59:39.223Z,84.17
2017-04-25T07:00:04.678Z,85.02
2017-04-25T07:00:30.139Z,85.21
2017-04-25T07:00:55.587Z,85.11
2017-04-25T07:01:21.076Z,83.97
2017-04-25T07:01:46.525Z,83.12
2017-04-25T07:02:11.996Z,83.78
2017-04-25T07:02:37.464Z,83.69
2017-04-25T07:03:02.937Z,83.97
2017-04-25T07:03:28.415Z,83.78
2017-04-25T07:03:53.879Z,83.97
2017-04-25T07:04:19.367Z,82.65
2017-04-25T07:04:44.835Z,82.93
2017-04-25T07:05:10.315Z,82.55
2017-04-25T07:05:35.795Z,82.84
2017-04-25T07:06:01.258Z,83.31
2017-04-25T07:06:26.732Z,82.65
2017-04-25T07:06:52.208Z,80.94
2017-04-25T07:07:17.668Z,79.33
2017-04-25T07:07:43.132Z,78.85
2017-04-25T07:08:08.632Z,79.04
2017-04-25T07:08:34.112Z,79.42
2017-04-25T07:08:59.607Z,79.46
2017-04-25T07:09:25.055Z,79.27
2017-04-25T07:09:50.532Z,78.8
2017-04-25T07:10:15.977Z,77.75
2017-04-25T07:10:41.440Z,77.28
2017-04-25T07:11:06.902Z,77.09
2017-04-25T07:11:32.381Z,78.23
2017-04-25T07:11:57.860Z,77.47
2017-04-25T07:12:23.351Z,77.56
2017-04-25T07:12:48.798Z,78.32
2017-04-25T07:13:14.272Z,79.46
2017-04-25T07:13:39.746Z,80.03
2017-04-25T07:14:05.205Z,79.08
2017-04-25T07:14:30.664Z,77.56
2017-04-25T07:14:56.109Z,78.42
2017-04-25T07:15:21.598Z,79.08
2017-04-25T07:15:47.032Z,78.8
2017-04-25T07:16:12.504Z,78.23
2017-04-25T07:16:37.956Z,78.13
2017-04-25T07:17:03.432Z,77.31
2017-04-25T07:17:28.898Z,77.6
2017-04-25T07:17:54.370Z,77.22
2017-04-25T07:18:19.845Z,77.6
2017-04-25T07:18:45.325Z,78.08
2017-04-25T07:19:10.805Z,78.83
2017-04-25T07:19:36.251Z,79.97
2017-04-25T07:20:01.739Z,79.03
2017-04-25T07:20:27.207Z,77.89
2017-04-25T07:20:52.660Z,76.08
2017-04-25T07:21:18.105Z,75.13
2017-04-25T07:21:43.566Z,73.99
2017-04-25T07:22:09.039Z,73.9
2017-04-25T07:22:34.501Z,73.52
2017-04-25T07:22:59.991Z,73.48
2017-04-25T07:23:25.545Z,74.24
2017-04-25T07:23:51.010Z,74.08
2017-04-25T07:24:16.605Z,72.44
2017-04-25T07:24:42.093Z,72.38
2017-04-25T07:25:07.565Z,71.58
2017-04-25T07:25:33.033Z,71.71
2017-04-25T07:25:58.516Z,71.39
2017-04-25T07:26:24.000Z,72.75
2017-04-25T07:26:49.460Z,72.75
2017-04-25T07:27:14.934Z,72.44
2017-04-25T07:27:40.384Z,72.47
2017-04-25T07:28:05.863Z,73.52
2017-04-25T07:28:31.349Z,73.23
2017-04-25T07:28:56.818Z,73.14
2017-04-25T07:29:22.299Z,74.08
2017-04-25T07:29:47.765Z,73.04
2017-04-25T07:30:13.216Z,72.56
2017-04-25T07:30:38.682Z,71.81
2017-04-25T07:31:04.160Z,72
2017-04-25T07:31:29.651Z,71.14
2017-04-25T07:31:55.144Z,69.05
2017-04-25T07:32:20.628Z,68.86
2017-04-25T07:32:46.071Z,68.86
2017-04-25T07:33:11.611Z,69.43
2017-04-25T07:33:37.109Z,68.96
2017-04-25T07:34:02.562Z,69.15
2017-04-25T07:34:28.034Z,68.48
2017-04-25T07:34:53.529Z,68.58
2017-04-25T07:35:19.010Z,68.77
2017-04-25T07:35:44.487Z,69.91
2017-04-25T07:36:09.966Z,71.23
2017-04-25T07:36:35.430Z,71.9
2017-04-25T07:37:00.965Z,70.67
2017-04-25T07:37:26.400Z,69.81
2017-04-25T07:37:51.902Z,71.23
2017-04-25T07:38:17.292Z,72
2017-04-25T07:38:42.756Z,71.81
2017-04-25T07:39:08.251Z,70.95
2017-04-25T07:39:33.720Z,70.95
2017-04-25T07:39:59.224Z,70.76
2017-04-25T07:40:24.700Z,70.1
2017-04-25T07:40:50.152Z,68.86
2017-04-25T07:41:15.729Z,67.91
2017-04-25T07:41:41.115Z,66.67
2017-04-25T07:42:06.811Z,65.54
2017-04-25T07:42:32.076Z,65.73
2017-04-25T07:42:57.663Z,64.3
2017-04-25T07:43:23.179Z,62.88
2017-04-25T07:43:48.589Z,61.74
2017-04-25T07:44:14.064Z,62.18
2017-04-25T07:44:39.515Z,63.79
2017-04-25T07:45:04.973Z,64.27
2017-04-25T07:45:30.430Z,65.31
2017-04-25T07:45:55.917Z,65.88
2017-04-25T07:46:21.391Z,65.5
2017-04-25T07:46:46.830Z,65.98
2017-04-25T07:47:12.304Z,66.36
2017-04-25T07:47:37.795Z,66.74
2017-04-25T07:48:03.265Z,65.73
2017-04-25T07:48:28.743Z,65.44
2017-04-25T07:48:54.228Z,64.97
2017-04-25T07:49:19.682Z,65.25
2017-04-25T07:49:45.180Z,64.37
2017-04-25T07:50:10.666Z,64.02
2017-04-25T07:50:36.173Z,63.73
2017-04-25T07:51:01.622Z,65.73
2017-04-25T07:51:27.104Z,64.97
2017-04-25T07:51:52.577Z,64.3
2017-04-25T07:52:18.140Z,65.35
2017-04-25T07:52:43.610Z,64.78
2017-04-25T07:53:09.153Z,64.78
2017-04-25T07:53:34.572Z,64.69
2017-04-25T07:54:00.213Z,63.26
2017-04-25T07:54:25.698Z,62.88
2017-04-25T07:54:51.179Z,62.97
2017-04-25T07:55:16.644Z,62.5
2017-04-25T07:55:42.119Z,61.65
2017-04-25T07:56:07.586Z,61.93
2017-04-25T07:56:33.051Z,61.65
2017-04-25T07:56:58.523Z,62.12
2017-04-25T07:57:23.997Z,62.02
2017-04-25T07:57:49.503Z,61.17
2017-04-25T07:58:15.001Z,60.41
2017-04-25T07:58:40.442Z,59.93
2017-04-25T07:59:06.078Z,59.65
2017-04-25T07:59:31.376Z,59.74
2017-04-25T07:59:56.867Z,59.93
2017-04-25T08:00:22.320Z,60.41
2017-04-25T08:00:47.785Z,61.26
2017-04-25T08:01:13.253Z,61.29
2017-04-25T08:01:38.725Z,61.39
2017-04-25T08:02:04.221Z,60.25
2017-04-25T08:02:29.708Z,59.58
2017-04-25T08:02:55.135Z,59.2
2017-04-25T08:03:20.611Z,58.92
2017-04-25T08:03:46.066Z,59.11
2017-04-25T08:04:11.547Z,59.01
2017-04-25T08:04:37.009Z,58.73
2017-04-25T08:05:02.466Z,58.44
2017-04-25T08:05:27.947Z,58.16
2017-04-25T08:05:53.411Z,56.54
2017-04-25T08:06:18.886Z,56.45
2017-04-25T08:06:44.363Z,56.63
2017-04-25T08:07:09.822Z,56.45
2017-04-25T08:07:35.337Z,56.63
2017-04-25T08:08:00.773Z,56.63
2017-04-25T08:08:26.265Z,57.68
2017-04-25T08:08:51.756Z,57.87
2017-04-25T08:09:17.224Z,57.52
2017-04-25T08:09:42.694Z,56.48
2017-04-25T08:10:08.176Z,56.85
2017-04-25T08:10:33.630Z,57.43
2017-04-25T08:10:59.100Z,57.81
2017-04-25T08:11:24.591Z,56.19
2017-04-25T08:11:50.054Z,55.33
2017-04-25T08:12:15.523Z,55.43
2017-04-25T08:12:41.003Z,55.33
2017-04-25T08:13:06.487Z,56
2017-04-25T08:13:31.964Z,55.62
2017-04-25T08:13:57.453Z,54.86
2017-04-25T08:14:22.940Z,54.86
2017-04-25T08:14:48.451Z,54.38
2017-04-25T08:15:13.895Z,54.48
2017-04-25T08:15:39.377Z,54.1
2017-04-25T08:16:04.844Z,54.86
2017-04-25T08:16:30.341Z,55.52
2017-04-25T08:16:55.908Z,55.33
2017-04-25T08:17:21.372Z,55.43
2017-04-25T08:17:46.804Z,55.24
2017-04-25T08:18:12.275Z,54.86
2017-04-25T08:18:37.742Z,55.05
2017-04-25T08:19:03.237Z,55.15
2017-04-25T08:19:28.721Z,55.52
2017-04-25T08:19:54.182Z,55.05
2017-04-25T08:20:19.640Z,55.15
2017-04-25T08:20:45.135Z,54.86
2017-04-25T08:21:10.621Z,54.29
2017-04-25T08:21:36.096Z,54.77
2017-04-25T08:22:01.583Z,54.57
2017-04-25T08:22:27.102Z,54.57
2017-04-25T08:22:52.590Z,54.86
2017-04-25T08:23:18.038Z,54.19
2017-04-25T08:23:43.491Z,54.57
2017-04-25T08:24:08.951Z,54.38
2017-04-25T08:24:34.416Z,55.05
2017-04-25T08:24:59.878Z,55.52
2017-04-25T08:25:25.340Z,56.1
2017-04-25T08:25:50.816Z,56.29
2017-04-25T08:26:16.285Z,55.43
2017-04-25T08:26:41.767Z,55.33
2017-04-25T08:27:07.245Z,55.24
2017-04-25T08:27:32.734Z,55.9
2017-04-25T08:27:58.196Z,56.1
2017-04-25T08:28:23.725Z,56.95
2017-04-25T08:28:49.213Z,57.43
2017-04-25T08:29:14.698Z,56.57
2017-04-25T08:29:40.155Z,56.67
2017-04-25T08:30:05.712Z,56.85
2017-04-25T08:30:31.212Z,57.24
2017-04-25T08:30:56.691Z,57.43
2017-04-25T08:31:22.149Z,56.76
2017-04-25T08:31:47.606Z,56.85
2017-04-25T08:32:13.076Z,56.67
2017-04-25T08:32:38.576Z,56.85
2017-04-25T08:33:04.053Z,56.85
2017-04-25T08:33:29.490Z,57.04
2017-04-25T08:33:54.967Z,57.52
2017-04-25T08:34:20.437Z,57.43
2017-04-25T08:34:45.903Z,56
2017-04-25T08:35:11.533Z,55.52
2017-04-25T08:35:36.882Z,55.81
2017-04-25T08:36:02.360Z,55.62
2017-04-25T08:36:27.850Z,55.52
2017-04-25T08:36:53.349Z,55.71
2017-04-25T08:37:18.904Z,56.19
2017-04-25T08:37:44.268Z,55.59
2017-04-25T08:38:09.857Z,55.59
2017-04-25T08:38:35.256Z,56.48
2017-04-25T08:39:00.748Z,56.67
2017-04-25T08:39:26.290Z,56.54
2017-04-25T08:39:51.752Z,56.67
2017-04-25T08:40:17.255Z,56.67
2017-04-25T08:40:42.720Z,56.67
2017-04-25T08:41:08.185Z,56.1
2017-04-25T08:41:33.650Z,54.19
2017-04-25T08:41:59.192Z,54.1
2017-04-25T08:42:24.628Z,54
2017-04-25T08:42:50.106Z,54
2017-04-25T08:43:15.578Z,54.38
2017-04-25T08:43:41.063Z,54.29
2017-04-25T08:44:06.528Z,55.15
2017-04-25T08:44:31.991Z,54.38
2017-04-25T08:44:57.469Z,54
2017-04-25T08:45:22.970Z,54
2017-04-25T08:45:48.432Z,52.96
2017-04-25T08:46:13.884Z,53.24
2017-04-25T08:46:39.395Z,53.34
2017-04-25T08:47:05.028Z,53.91
2017-04-25T08:47:30.526Z,54.29
2017-04-25T08:47:55.999Z,54.77
2017-04-25T08:48:21.473Z,55.33
2017-04-25T08:48:46.948Z,55.43
2017-04-25T08:49:12.406Z,54.77
2017-04-25T08:49:37.889Z,55.15
2017-04-25T08:50:03.362Z,55.43
2017-04-25T08:50:28.902Z,55.62
2017-04-25T08:50:54.312Z,55.62
2017-04-25T08:51:19.778Z,54.48
2017-04-25T08:51:45.278Z,54.29
2017-04-25T08:52:10.754Z,53.15
2017-04-25T08:52:36.253Z,53.24
2017-04-25T08:53:01.703Z,53.24
2017-04-25T08:53:27.218Z,53.15
2017-04-25T08:53:52.662Z,53.72
2017-04-25T08:54:18.109Z,54.19
2017-04-25T08:54:43.596Z,54.48
2017-04-25T08:55:09.067Z,54.29
2017-04-25T08:55:34.608Z,54.19
2017-04-25T08:56:00.186Z,53.91
2017-04-25T08:56:25.628Z,53.34
2017-04-25T08:56:51.114Z,53.24
2017-04-25T08:57:16.569Z,53.05
2017-04-25T08:57:42.043Z,53.05
2017-04-25T08:58:07.519Z,53.81
2017-04-25T08:58:32.957Z,54
2017-04-25T08:58:58.436Z,54.29
2017-04-25T08:59:23.921Z,54.29
2017-04-25T08:59:49.437Z,53.43
2017-04-25T09:00:14.915Z,53.17
2017-04-25T09:00:40.398Z,53.27
2017-04-25T09:01:05.877Z,53.17
2017-04-25T09:01:31.343Z,53.17
2017-04-25T09:01:56.824Z,52.41
2017-04-25T09:02:22.335Z,52.7
2017-04-25T09:02:47.801Z,52.51
2017-04-25T09:03:13.268Z,52.61
2017-04-25T09:03:38.712Z,52.61
2017-04-25T09:04:04.188Z,52.34
2017-04-25T09:04:29.667Z,52.25
2017-04-25T09:04:55.146Z,52.25
2017-04-25T09:05:20.641Z,52.25
2017-04-25T09:05:46.208Z,53.2
2017-04-25T09:06:11.646Z,51.78
2017-04-25T09:06:37.137Z,51.49
2017-04-25T09:07:02.627Z,50.92
2017-04-25T09:07:28.076Z,50.32
2017-04-25T09:07:53.572Z,50.04
2017-04-25T09:08:19.055Z,50.42
2017-04-25T09:08:44.527Z,50.7
2017-04-25T09:09:10.021Z,51.18
2017-04-25T09:09:35.476Z,51.08
2017-04-25T09:10:00.913Z,51.18
2017-04-25T09:10:26.404Z,51.46
2017-04-25T09:10:51.858Z,51.46
2017-04-25T09:11:17.325Z,51.46
2017-04-25T09:11:42.798Z,51.27
2017-04-25T09:12:08.306Z,51.46
2017-04-25T09:12:33.743Z,51.18
2017-04-25T09:12:59.181Z,51.65
2017-04-25T09:13:24.634Z,52.61
2017-04-25T09:13:50.104Z,52.98
2017-04-25T09:14:15.569Z,53.17
2017-04-25T09:14:41.036Z,52.98
2017-04-25T09:15:06.503Z,53.27
2017-04-25T09:15:32.007Z,52.98
2017-04-25T09:15:57.512Z,53.36
2017-04-25T09:16:22.965Z,53.17
2017-04-25T09:16:48.479Z,53.49
2017-04-25T09:17:13.973Z,52.44
2017-04-25T09:17:39.374Z,52.34
2017-04-25T09:18:04.861Z,51.3
2017-04-25T09:18:30.349Z,50.73
2017-04-25T09:18:55.801Z,50.63
2017-04-25T09:19:21.322Z,49.87
2017-04-25T09:19:46.796Z,49.49
2017-04-25T09:20:12.269Z,49.49
2017-04-25T09:20:37.815Z,49.49
2017-04-25T09:21:03.296Z,49.77
2017-04-25T09:21:28.767Z,50.35
2017-04-25T09:21:54.244Z,49.68
2017-04-25T09:22:19.732Z,48.63
2017-04-25T09:22:45.194Z,48.54
2017-04-25T09:23:10.675Z,49.2
2017-04-25T09:23:36.150Z,49.3
2017-04-25T09:24:01.642Z,49.49
2017-04-25T09:24:27.144Z,49.4
2017-04-25T09:24:52.577Z,50.35
2017-04-25T09:25:18.065Z,51.1
2017-04-25T09:25:43.532Z,49.99
2017-04-25T09:26:09.025Z,49.42
2017-04-25T09:26:34.467Z,49.32
2017-04-25T09:26:59.944Z,48.85
2017-04-25T09:27:25.435Z,48.66
2017-04-25T09:27:50.881Z,47.97
2017-04-25T09:28:16.326Z,47.97
2017-04-25T09:28:41.856Z,48.54
2017-04-25T09:29:07.313Z,48.82
2017-04-25T09:29:32.759Z,48.25
2017-04-25T09:29:58.218Z,47.61
2017-04-25T09:30:23.710Z,47.68
2017-04-25T09:30:49.232Z,47.87
2017-04-25T09:31:14.684Z,48.73
2017-04-25T09:31:40.157Z,48.25
2017-04-25T09:32:05.616Z,49.4
2017-04-25T09:32:31.100Z,49.3